sensor_id;sensor_type;location;lat;lon;timestamp;pressure;altitude;pressure_sealevel;temperature;humidity
27984;BME280;15317;50.360;8.726;2023-02-03T00:02:55;100394.91;;;7.31;100.00
27984;BME280;15317;50.360;8.726;2023-02-03T00:06:59;100393.63;;;7.37;100.00
27984;BME280;15317;50.360;8.726;2023-02-03T00:11:01;100409.19;;;7.33;100.00
27984;BME280;15317;50.360;8.726;2023-02-03T00:15:03;100416.72;;;7.41;100.00
27984;BME280;15317;50.360;8.726;2023-02-03T00:19:05;100419.13;;;7.33;100.00
27984;BME280;15317;50.360;8.726;2023-02-03T00:23:09;100425.41;;;7.33;100.00
27984;BME280;15317;50.360;8.726;2023-02-03T00:27:12;100446.25;;;7.31;100.00
27984;BME280;15317;50.360;8.726;2023-02-03T00:31:14;100435.91;;;7.49;100.00
27984;BME280;15317;50.360;8.726;2023-02-03T00:35:17;100436.00;;;7.36;100.00
27984;BME280;15317;50.360;8.726;2023-02-03T00:39:20;100418.25;;;7.32;100.00
27984;BME280;15317;50.360;8.726;2023-02-03T00:43:22;100400.19;;;7.22;100.00
27984;BME280;15317;50.360;8.726;2023-02-03T00:47:24;100388.41;;;7.23;100.00
27984;BME280;15317;50.360;8.726;2023-02-03T00:51:26;100360.13;;;7.16;100.00
27984;BME280;15317;50.360;8.726;2023-02-03T00:55:30;100346.44;;;7.06;100.00
27984;BME280;15317;50.360;8.726;2023-02-03T00:59:32;100355.28;;;7.08;100.00
27984;BME280;15317;50.360;8.726;2023-02-03T01:03:34;100392.66;;;7.14;100.00
27984;BME280;15317;50.360;8.726;2023-02-03T01:07:36;100383.50;;;7.28;100.00
27984;BME280;15317;50.360;8.726;2023-02-03T01:11:39;100357.44;;;7.27;100.00
27984;BME280;15317;50.360;8.726;2023-02-03T01:15:44;100353.00;;;7.26;100.00
27984;BME280;15317;50.360;8.726;2023-02-03T01:19:46;100356.22;;;7.31;100.00
27984;BME280;15317;50.360;8.726;2023-02-03T01:23:49;100348.25;;;7.29;100.00
27984;BME280;15317;50.360;8.726;2023-02-03T01:27:53;100350.22;;;7.27;100.00
27984;BME280;15317;50.360;8.726;2023-02-03T01:31:55;100354.75;;;7.27;100.00
27984;BME280;15317;50.360;8.726;2023-02-03T01:35:59;100350.44;;;7.24;100.00
27984;BME280;15317;50.360;8.726;2023-02-03T01:40:01;100351.94;;;7.28;100.00
27984;BME280;15317;50.360;8.726;2023-02-03T01:44:37;100338.41;;;7.28;100.00
27984;BME280;15317;50.360;8.726;2023-02-03T01:48:40;100344.53;;;7.30;100.00
27984;BME280;15317;50.360;8.726;2023-02-03T01:52:44;100335.72;;;7.28;100.00
27984;BME280;15317;50.360;8.726;2023-02-03T01:56:50;100336.31;;;7.32;100.00
27984;BME280;15317;50.360;8.726;2023-02-03T02:00:57;100331.41;;;7.26;100.00
27984;BME280;15317;50.360;8.726;2023-02-03T02:05:02;100331.03;;;7.30;100.00
27984;BME280;15317;50.360;8.726;2023-02-03T02:09:05;100343.81;;;7.28;100.00
27984;BME280;15317;50.360;8.726;2023-02-03T02:13:07;100349.72;;;7.33;100.00
27984;BME280;15317;50.360;8.726;2023-02-03T02:17:20;100354.78;;;7.38;100.00
27984;BME280;15317;50.360;8.726;2023-02-03T02:21:40;100353.41;;;7.32;100.00
27984;BME280;15317;50.360;8.726;2023-02-03T02:26:00;100348.75;;;7.34;100.00
27984;BME280;15317;50.360;8.726;2023-02-03T02:30:35;100346.81;;;7.36;100.00
27984;BME280;15317;50.360;8.726;2023-02-03T02:34:50;100345.19;;;7.34;100.00
27984;BME280;15317;50.360;8.726;2023-02-03T02:39:01;100365.47;;;7.39;100.00
27984;BME280;15317;50.360;8.726;2023-02-03T02:43:07;100359.56;;;7.34;100.00
27984;BME280;15317;50.360;8.726;2023-02-03T02:47:16;100366.97;;;7.43;100.00
27984;BME280;15317;50.360;8.726;2023-02-03T02:51:21;100376.06;;;7.42;100.00
27984;BME280;15317;50.360;8.726;2023-02-03T02:55:27;100364.59;;;7.39;100.00
27984;BME280;15317;50.360;8.726;2023-02-03T02:59:29;100352.69;;;7.41;100.00
27984;BME280;15317;50.360;8.726;2023-02-03T03:03:31;100346.19;;;7.44;100.00
27984;BME280;15317;50.360;8.726;2023-02-03T03:07:39;100359.34;;;7.48;100.00
27984;BME280;15317;50.360;8.726;2023-02-03T03:11:46;100358.00;;;7.54;100.00
27984;BME280;15317;50.360;8.726;2023-02-03T03:15:51;100350.00;;;7.52;100.00
27984;BME280;15317;50.360;8.726;2023-02-03T03:19:55;100328.88;;;7.46;100.00
27984;BME280;15317;50.360;8.726;2023-02-03T03:24:04;100324.72;;;7.53;100.00
27984;BME280;15317;50.360;8.726;2023-02-03T03:28:11;100319.31;;;7.53;100.00
27984;BME280;15317;50.360;8.726;2023-02-03T03:32:15;100311.69;;;7.59;100.00
27984;BME280;15317;50.360;8.726;2023-02-03T03:36:22;100309.97;;;7.58;100.00
27984;BME280;15317;50.360;8.726;2023-02-03T03:40:30;100315.13;;;7.61;100.00
27984;BME280;15317;50.360;8.726;2023-02-03T03:44:37;100323.38;;;7.59;100.00
27984;BME280;15317;50.360;8.726;2023-02-03T03:48:44;100295.84;;;7.54;100.00
27984;BME280;15317;50.360;8.726;2023-02-03T03:52:51;100300.75;;;7.60;100.00
27984;BME280;15317;50.360;8.726;2023-02-03T03:57:00;100290.22;;;7.57;100.00
27984;BME280;15317;50.360;8.726;2023-02-03T04:01:05;100297.19;;;7.60;100.00
27984;BME280;15317;50.360;8.726;2023-02-03T04:05:09;100315.84;;;7.51;100.00
27984;BME280;15317;50.360;8.726;2023-02-03T04:09:12;100315.63;;;7.54;100.00
27984;BME280;15317;50.360;8.726;2023-02-03T04:13:15;100330.97;;;7.54;100.00
27984;BME280;15317;50.360;8.726;2023-02-03T04:17:19;100323.38;;;7.59;100.00
27984;BME280;15317;50.360;8.726;2023-02-03T04:21:21;100307.25;;;7.58;100.00
27984;BME280;15317;50.360;8.726;2023-02-03T04:25:24;100325.09;;;7.60;100.00
27984;BME280;15317;50.360;8.726;2023-02-03T04:29:28;100358.41;;;7.61;100.00
27984;BME280;15317;50.360;8.726;2023-02-03T04:33:30;100353.97;;;7.60;100.00
27984;BME280;15317;50.360;8.726;2023-02-03T04:37:32;100347.81;;;7.58;100.00
27984;BME280;15317;50.360;8.726;2023-02-03T04:41:34;100353.97;;;7.60;100.00
27984;BME280;15317;50.360;8.726;2023-02-03T04:45:38;100342.66;;;7.66;100.00
27984;BME280;15317;50.360;8.726;2023-02-03T04:49:39;100327.09;;;7.69;99.82
27984;BME280;15317;50.360;8.726;2023-02-03T04:53:41;100332.59;;;7.68;100.00
27984;BME280;15317;50.360;8.726;2023-02-03T04:57:43;100323.75;;;7.66;100.00
27984;BME280;15317;50.360;8.726;2023-02-03T05:01:47;100310.22;;;7.66;100.00
27984;BME280;15317;50.360;8.726;2023-02-03T05:05:49;100291.81;;;7.71;100.00
27984;BME280;15317;50.360;8.726;2023-02-03T05:09:51;100278.75;;;7.65;100.00
27984;BME280;15317;50.360;8.726;2023-02-03T05:13:53;100300.66;;;7.62;100.00
27984;BME280;15317;50.360;8.726;2023-02-03T05:17:56;100279.63;;;7.65;100.00
27984;BME280;15317;50.360;8.726;2023-02-03T05:21:58;100282.69;;;7.61;100.00
27984;BME280;15317;50.360;8.726;2023-02-03T05:26:00;100268.81;;;7.54;100.00
27984;BME280;15317;50.360;8.726;2023-02-03T05:30:02;100269.19;;;7.49;100.00
27984;BME280;15317;50.360;8.726;2023-02-03T05:34:06;100262.66;;;7.52;100.00
27984;BME280;15317;50.360;8.726;2023-02-03T05:38:08;100280.84;;;7.61;100.00
27984;BME280;15317;50.360;8.726;2023-02-03T05:42:10;100279.84;;;7.51;100.00
27984;BME280;15317;50.360;8.726;2023-02-03T05:46:11;100286.13;;;7.51;100.00
27984;BME280;15317;50.360;8.726;2023-02-03T05:50:15;100281.72;;;7.62;100.00
27984;BME280;15317;50.360;8.726;2023-02-03T05:54:17;100288.59;;;7.54;100.00
27984;BME280;15317;50.360;8.726;2023-02-03T05:58:19;100282.69;;;7.61;100.00
27984;BME280;15317;50.360;8.726;2023-02-03T06:02:21;100292.03;;;7.57;100.00
27984;BME280;15317;50.360;8.726;2023-02-03T06:06:25;100270.66;;;7.53;100.00
27984;BME280;15317;50.360;8.726;2023-02-03T06:10:32;100271.63;;;7.52;100.00
27984;BME280;15317;50.360;8.726;2023-02-03T06:14:35;100267.47;;;7.48;100.00
27984;BME280;15317;50.360;8.726;2023-02-03T06:18:37;100274.59;;;7.49;100.00
27984;BME280;15317;50.360;8.726;2023-02-03T06:22:40;100260.19;;;7.60;100.00
27984;BME280;15317;50.360;8.726;2023-02-03T06:26:42;100283.41;;;7.51;100.00
27984;BME280;15317;50.360;8.726;2023-02-03T06:30:44;100283.06;;;7.56;100.00
27984;BME280;15317;50.360;8.726;2023-02-03T06:34:46;100278.88;;;7.52;100.00
27984;BME280;15317;50.360;8.726;2023-02-03T06:38:49;100277.28;;;7.49;100.00
27984;BME280;15317;50.360;8.726;2023-02-03T06:42:51;100290.81;;;7.49;100.00
27984;BME280;15317;50.360;8.726;2023-02-03T06:46:53;100293.63;;;7.48;100.00
27984;BME280;15317;50.360;8.726;2023-02-03T06:50:56;100270.91;;;7.50;100.00
27984;BME280;15317;50.360;8.726;2023-02-03T06:54:59;100281.47;;;7.53;100.00
27984;BME280;15317;50.360;8.726;2023-02-03T06:59:01;100308.25;;;7.57;100.00
27984;BME280;15317;50.360;8.726;2023-02-03T07:03:03;100295.72;;;7.56;100.00
27984;BME280;15317;50.360;8.726;2023-02-03T07:07:05;100282.59;;;7.62;100.00
27984;BME280;15317;50.360;8.726;2023-02-03T07:11:09;100275.94;;;7.66;100.00
27984;BME280;15317;50.360;8.726;2023-02-03T07:15:11;100276.94;;;7.76;100.00
27984;BME280;15317;50.360;8.726;2023-02-03T07:19:13;100270.66;;;7.76;100.00
27984;BME280;15317;50.360;8.726;2023-02-03T07:23:16;100267.47;;;7.82;99.64
27984;BME280;15317;50.360;8.726;2023-02-03T07:27:19;100290.72;;;7.84;100.00
27984;BME280;15317;50.360;8.726;2023-02-03T07:31:21;100275.69;;;7.91;97.57
27984;BME280;15317;50.360;8.726;2023-02-03T07:35:23;100282.31;;;7.99;97.73
27984;BME280;15317;50.360;8.726;2023-02-03T07:39:25;100279.75;;;7.97;97.70
27984;BME280;15317;50.360;8.726;2023-02-03T07:43:28;100303.13;;;7.98;97.05
27984;BME280;15317;50.360;8.726;2023-02-03T07:47:30;100297.72;;;7.98;96.56
27984;BME280;15317;50.360;8.726;2023-02-03T07:51:33;100310.50;;;7.96;96.81
27984;BME280;15317;50.360;8.726;2023-02-03T07:55:36;100310.22;;;7.99;96.46
27984;BME280;15317;50.360;8.726;2023-02-03T07:59:40;100315.63;;;7.99;96.86
27984;BME280;15317;50.360;8.726;2023-02-03T08:03:42;100308.28;;;8.01;96.22
27984;BME280;15317;50.360;8.726;2023-02-03T08:07:44;100311.72;;;8.03;96.55
27984;BME280;15317;50.360;8.726;2023-02-03T08:11:47;100313.19;;;7.96;97.38
27984;BME280;15317;50.360;8.726;2023-02-03T08:15:50;100292.66;;;8.05;95.55
27984;BME280;15317;50.360;8.726;2023-02-03T08:19:52;100293.03;;;8.00;96.53
27984;BME280;15317;50.360;8.726;2023-02-03T08:23:54;100286.13;;;8.07;95.64
27984;BME280;15317;50.360;8.726;2023-02-03T08:27:56;100299.19;;;8.02;96.54
27984;BME280;15317;50.360;8.726;2023-02-03T08:31:59;100296.72;;;8.10;96.07
27984;BME280;15317;50.360;8.726;2023-02-03T08:36:01;100281.94;;;8.14;95.58
27984;BME280;15317;50.360;8.726;2023-02-03T08:40:04;100279.22;;;8.14;94.80
27984;BME280;15317;50.360;8.726;2023-02-03T08:44:06;100271.13;;;8.14;94.71
27984;BME280;15317;50.360;8.726;2023-02-03T08:48:10;100262.88;;;8.16;94.59
27984;BME280;15317;50.360;8.726;2023-02-03T08:52:12;100264.59;;;8.17;95.05
27984;BME280;15317;50.360;8.726;2023-02-03T08:56:14;100268.28;;;8.16;94.70
27984;BME280;15317;50.360;8.726;2023-02-03T09:00:17;100275.31;;;8.18;94.19
27984;BME280;15317;50.360;8.726;2023-02-03T09:04:20;100277.38;;;8.15;94.37
27984;BME280;15317;50.360;8.726;2023-02-03T09:08:24;100268.66;;;8.22;94.84
27984;BME280;15317;50.360;8.726;2023-02-03T09:12:26;100275.78;;;8.23;94.30
27984;BME280;15317;50.360;8.726;2023-02-03T09:16:28;100261.50;;;8.32;92.88
27984;BME280;15317;50.360;8.726;2023-02-03T09:20:31;100254.34;;;8.43;93.03
27984;BME280;15317;50.360;8.726;2023-02-03T09:24:33;100254.59;;;8.51;92.14
27984;BME280;15317;50.360;8.726;2023-02-03T09:28:36;100255.91;;;8.56;91.62
27984;BME280;15317;50.360;8.726;2023-02-03T09:32:38;100253.31;;;8.66;89.51
27984;BME280;15317;50.360;8.726;2023-02-03T09:36:41;100256.72;;;8.68;89.75
27984;BME280;15317;50.360;8.726;2023-02-03T09:40:44;100266.38;;;8.82;89.51
27984;BME280;15317;50.360;8.726;2023-02-03T09:44:52;100259.25;;;8.81;88.91
27984;BME280;15317;50.360;8.726;2023-02-03T09:49:05;100252.91;;;8.70;89.28
27984;BME280;15317;50.360;8.726;2023-02-03T09:53:20;100254.44;;;8.84;90.36
27984;BME280;15317;50.360;8.726;2023-02-03T09:57:26;100263.56;;;8.83;90.49
27984;BME280;15317;50.360;8.726;2023-02-03T10:01:36;100241.88;;;8.83;90.63
27984;BME280;15317;50.360;8.726;2023-02-03T10:05:56;100247.72;;;8.79;91.28
27984;BME280;15317;50.360;8.726;2023-02-03T10:10:10;100242.63;;;8.85;91.20
27984;BME280;15317;50.360;8.726;2023-02-03T10:14:25;100254.22;;;8.76;92.36
27984;BME280;15317;50.360;8.726;2023-02-03T10:18:32;100256.69;;;8.79;93.32
27984;BME280;15317;50.360;8.726;2023-02-03T10:22:40;100262.63;;;8.73;94.59
27984;BME280;15317;50.360;8.726;2023-02-03T10:26:45;100262.63;;;8.73;95.13
27984;BME280;15317;50.360;8.726;2023-02-03T10:30:49;100268.81;;;8.64;96.16
27984;BME280;15317;50.360;8.726;2023-02-03T10:34:52;100265.38;;;8.62;97.61
27984;BME280;15317;50.360;8.726;2023-02-03T10:38:59;100257.47;;;8.70;98.77
27984;BME280;15317;50.360;8.726;2023-02-03T10:43:08;100253.25;;;8.77;99.29
27984;BME280;15317;50.360;8.726;2023-02-03T10:47:31;100249.59;;;8.67;100.00
27984;BME280;15317;50.360;8.726;2023-02-03T10:51:36;100227.88;;;8.78;100.00
27984;BME280;15317;50.360;8.726;2023-02-03T10:55:39;100222.72;;;8.75;100.00
27984;BME280;15317;50.360;8.726;2023-02-03T10:59:44;100213.88;;;8.73;100.00
27984;BME280;15317;50.360;8.726;2023-02-03T11:03:56;100208.97;;;8.67;100.00
27984;BME280;15317;50.360;8.726;2023-02-03T11:07:58;100226.09;;;8.88;100.00
27984;BME280;15317;50.360;8.726;2023-02-03T11:12:11;100235.06;;;8.89;100.00
27984;BME280;15317;50.360;8.726;2023-02-03T11:16:16;100235.94;;;8.89;100.00
27984;BME280;15317;50.360;8.726;2023-02-03T11:20:20;100241.00;;;8.94;100.00
27984;BME280;15317;50.360;8.726;2023-02-03T11:24:27;100258.06;;;8.94;100.00
27984;BME280;15317;50.360;8.726;2023-02-03T11:28:30;100264.50;;;8.93;100.00
27984;BME280;15317;50.360;8.726;2023-02-03T11:32:38;100259.09;;;8.93;100.00
27984;BME280;15317;50.360;8.726;2023-02-03T11:36:41;100251.13;;;9.01;100.00
27984;BME280;15317;50.360;8.726;2023-02-03T11:40:43;100234.22;;;8.88;100.00
27984;BME280;15317;50.360;8.726;2023-02-03T11:44:45;100215.06;;;8.80;100.00
27984;BME280;15317;50.360;8.726;2023-02-03T11:48:59;100191.72;;;8.68;100.00
27984;BME280;15317;50.360;8.726;2023-02-03T11:53:24;100185.09;;;8.61;100.00
27984;BME280;15317;50.360;8.726;2023-02-03T11:57:34;100162.22;;;8.65;100.00
27984;BME280;15317;50.360;8.726;2023-02-03T12:01:56;100151.63;;;8.62;100.00
27984;BME280;15317;50.360;8.726;2023-02-03T12:06:22;100149.44;;;8.56;100.00
27984;BME280;15317;50.360;8.726;2023-02-03T12:10:36;100150.97;;;8.49;100.00
27984;BME280;15317;50.360;8.726;2023-02-03T12:14:50;100166.00;;;8.42;100.00
27984;BME280;15317;50.360;8.726;2023-02-03T12:19:03;100179.06;;;8.37;100.00
27984;BME280;15317;50.360;8.726;2023-02-03T12:23:17;100188.56;;;8.31;100.00
27984;BME280;15317;50.360;8.726;2023-02-03T12:27:35;100208.88;;;8.25;100.00
27984;BME280;15317;50.360;8.726;2023-02-03T12:31:43;100207.16;;;8.24;100.00
27984;BME280;15317;50.360;8.726;2023-02-03T12:35:52;100203.47;;;8.14;100.00
27984;BME280;15317;50.360;8.726;2023-02-03T12:40:00;100195.63;;;8.11;100.00
27984;BME280;15317;50.360;8.726;2023-02-03T12:44:07;100194.00;;;8.09;100.00
27984;BME280;15317;50.360;8.726;2023-02-03T12:48:18;100181.13;;;8.01;100.00
27984;BME280;15317;50.360;8.726;2023-02-03T12:52:25;100161.44;;;7.99;100.00
27984;BME280;15317;50.360;8.726;2023-02-03T12:56:36;100147.91;;;7.99;100.00
27984;BME280;15317;50.360;8.726;2023-02-03T13:00:45;100151.63;;;7.98;100.00
27984;BME280;15317;50.360;8.726;2023-02-03T13:04:51;100149.75;;;7.99;100.00
27984;BME280;15317;50.360;8.726;2023-02-03T13:08:59;100145.38;;;7.98;100.00
27984;BME280;15317;50.360;8.726;2023-02-03T13:13:04;100159.88;;;7.97;100.00
27984;BME280;15317;50.360;8.726;2023-02-03T13:17:14;100177.72;;;7.88;100.00
27984;BME280;15317;50.360;8.726;2023-02-03T13:21:18;100180.19;;;7.91;100.00
27984;BME280;15317;50.360;8.726;2023-02-03T13:25:23;100175.75;;;7.90;100.00
27984;BME280;15317;50.360;8.726;2023-02-03T13:29:40;100175.75;;;7.90;100.00
27984;BME280;15317;50.360;8.726;2023-02-03T13:33:51;100161.25;;;7.91;100.00
27984;BME280;15317;50.360;8.726;2023-02-03T13:38:13;100170.34;;;7.90;100.00
27984;BME280;15317;50.360;8.726;2023-02-03T13:42:23;100175.59;;;7.91;100.00
27984;BME280;15317;50.360;8.726;2023-02-03T13:46:31;100146.13;;;7.88;100.00
27984;BME280;15317;50.360;8.726;2023-02-03T13:50:35;100158.16;;;7.96;100.00
27984;BME280;15317;50.360;8.726;2023-02-03T13:54:42;100160.97;;;7.94;100.00
27984;BME280;15317;50.360;8.726;2023-02-03T13:58:59;100156.31;;;7.96;100.00
27984;BME280;15317;50.360;8.726;2023-02-03T14:03:14;100149.16;;;7.95;100.00
27984;BME280;15317;50.360;8.726;2023-02-03T14:07:28;100158.72;;;7.99;100.00
27984;BME280;15317;50.360;8.726;2023-02-03T14:11:49;100172.75;;;8.04;100.00
27984;BME280;15317;50.360;8.726;2023-02-03T14:16:12;100165.13;;;8.09;100.00
27984;BME280;15317;50.360;8.726;2023-02-03T14:20:42;100168.28;;;8.14;100.00
27984;BME280;15317;50.360;8.726;2023-02-03T14:24:47;100153.19;;;8.12;100.00
27984;BME280;15317;50.360;8.726;2023-02-03T14:28:50;100160.06;;;8.16;100.00
27984;BME280;15317;50.360;8.726;2023-02-03T14:32:54;100157.69;;;8.22;100.00
27984;BME280;15317;50.360;8.726;2023-02-03T14:37:10;100154.75;;;8.25;100.00
27984;BME280;15317;50.360;8.726;2023-02-03T14:41:17;100165.28;;;8.28;100.00
27984;BME280;15317;50.360;8.726;2023-02-03T14:45:34;100165.69;;;8.24;100.00
27984;BME280;15317;50.360;8.726;2023-02-03T14:50:00;100170.72;;;8.28;100.00
27984;BME280;15317;50.360;8.726;2023-02-03T14:54:17;100197.78;;;8.28;100.00
27984;BME280;15317;50.360;8.726;2023-02-03T14:58:27;100202.44;;;8.26;100.00
27984;BME280;15317;50.360;8.726;2023-02-03T15:02:32;100200.97;;;8.33;100.00
27984;BME280;15317;50.360;8.726;2023-02-03T15:06:37;100206.88;;;8.27;100.00
27984;BME280;15317;50.360;8.726;2023-02-03T15:10:42;100210.94;;;8.22;100.00
27984;BME280;15317;50.360;8.726;2023-02-03T15:14:44;100215.91;;;8.17;100.00
27984;BME280;15317;50.360;8.726;2023-02-03T15:18:53;100215.91;;;8.17;100.00
27984;BME280;15317;50.360;8.726;2023-02-03T15:22:56;100224.38;;;8.23;100.00
27984;BME280;15317;50.360;8.726;2023-02-03T15:26:59;100231.84;;;8.20;100.00
27984;BME280;15317;50.360;8.726;2023-02-03T15:31:03;100233.59;;;8.21;100.00
27984;BME280;15317;50.360;8.726;2023-02-03T15:35:12;100203.47;;;8.25;100.00
27984;BME280;15317;50.360;8.726;2023-02-03T15:39:20;100189.06;;;8.25;100.00
27984;BME280;15317;50.360;8.726;2023-02-03T15:43:30;100209.00;;;8.24;100.00
27984;BME280;15317;50.360;8.726;2023-02-03T15:47:34;100219.22;;;8.31;100.00
27984;BME280;15317;50.360;8.726;2023-02-03T15:51:40;100212.06;;;8.30;100.00
27984;BME280;15317;50.360;8.726;2023-02-03T15:55:46;100198.03;;;8.25;100.00
27984;BME280;15317;50.360;8.726;2023-02-03T15:59:53;100186.94;;;8.28;100.00
27984;BME280;15317;50.360;8.726;2023-02-03T16:03:57;100200.25;;;8.20;100.00
27984;BME280;15317;50.360;8.726;2023-02-03T16:08:25;100206.53;;;8.21;100.00
27984;BME280;15317;50.360;8.726;2023-02-03T16:12:29;100223.28;;;8.15;100.00
27984;BME280;15317;50.360;8.726;2023-02-03T16:16:35;100224.25;;;8.14;100.00
27984;BME280;15317;50.360;8.726;2023-02-03T16:20:47;100223.28;;;8.15;100.00
27984;BME280;15317;50.360;8.726;2023-02-03T16:24:50;100242.09;;;8.16;100.00
27984;BME280;15317;50.360;8.726;2023-02-03T16:28:56;100241.09;;;8.17;100.00
27984;BME280;15317;50.360;8.726;2023-02-03T16:33:22;100235.19;;;8.23;100.00
27984;BME280;15317;50.360;8.726;2023-02-03T16:37:43;100240.31;;;8.26;100.00
27984;BME280;15317;50.360;8.726;2023-02-03T16:42:08;100237.38;;;8.29;100.00
27984;BME280;15317;50.360;8.726;2023-02-03T16:46:31;100241.06;;;8.28;100.00
27984;BME280;15317;50.360;8.726;2023-02-03T16:50:52;100235.44;;;8.31;100.00
27984;BME280;15317;50.360;8.726;2023-02-03T16:54:55;100244.78;;;8.39;100.00
27984;BME280;15317;50.360;8.726;2023-02-03T16:58:57;100245.41;;;8.31;100.00
27984;BME280;15317;50.360;8.726;2023-02-03T17:03:02;100260.78;;;8.30;100.00
27984;BME280;15317;50.360;8.726;2023-02-03T17:07:05;100289.59;;;8.31;100.00
27984;BME280;15317;50.360;8.726;2023-02-03T17:11:10;100293.00;;;8.33;100.00
27984;BME280;15317;50.360;8.726;2023-02-03T17:15:15;100302.59;;;8.38;100.00
27984;BME280;15317;50.360;8.726;2023-02-03T17:19:16;100312.47;;;8.39;100.00
27984;BME280;15317;50.360;8.726;2023-02-03T17:23:20;100304.81;;;8.44;100.00
27984;BME280;15317;50.360;8.726;2023-02-03T17:27:22;100288.56;;;8.44;100.00
27984;BME280;15317;50.360;8.726;2023-02-03T17:31:24;100297.19;;;8.38;100.00
27984;BME280;15317;50.360;8.726;2023-02-03T17:35:26;100289.59;;;8.31;100.00
27984;BME280;15317;50.360;8.726;2023-02-03T17:39:29;100272.81;;;8.26;100.00
27984;BME280;15317;50.360;8.726;2023-02-03T17:43:31;100295.19;;;8.40;100.00
27984;BME280;15317;50.360;8.726;2023-02-03T17:47:33;100283.50;;;8.28;100.00
27984;BME280;15317;50.360;8.726;2023-02-03T17:51:35;100285.75;;;8.23;100.00
27984;BME280;15317;50.360;8.726;2023-02-03T17:55:38;100278.84;;;8.19;100.00
27984;BME280;15317;50.360;8.726;2023-02-03T17:59:40;100286.38;;;8.15;100.00
27984;BME280;15317;50.360;8.726;2023-02-03T18:03:43;100307.28;;;8.13;100.00
27984;BME280;15317;50.360;8.726;2023-02-03T18:07:45;100311.47;;;8.06;97.72
27984;BME280;15317;50.360;8.726;2023-02-03T18:11:48;100315.13;;;8.05;94.52
27984;BME280;15317;50.360;8.726;2023-02-03T18:15:50;100321.31;;;7.96;94.42
27984;BME280;15317;50.360;8.726;2023-02-03T18:19:52;100344.91;;;7.94;91.75
27984;BME280;15317;50.360;8.726;2023-02-03T18:23:55;100339.38;;;7.96;88.58
27984;BME280;15317;50.360;8.726;2023-02-03T18:28:01;100360.28;;;7.82;91.63
27984;BME280;15317;50.360;8.726;2023-02-03T18:32:03;100364.06;;;7.80;91.09
27984;BME280;15317;50.360;8.726;2023-02-03T18:36:06;100379.06;;;7.73;92.64
27984;BME280;15317;50.360;8.726;2023-02-03T18:40:09;100398.25;;;7.81;91.26
27984;BME280;15317;50.360;8.726;2023-02-03T18:44:13;100398.00;;;7.73;92.64
27984;BME280;15317;50.360;8.726;2023-02-03T18:48:15;100400.69;;;7.73;93.41
27984;BME280;15317;50.360;8.726;2023-02-03T18:52:17;100417.00;;;7.60;95.84
27984;BME280;15317;50.360;8.726;2023-02-03T18:56:20;100417.41;;;7.67;95.69
27984;BME280;15317;50.360;8.726;2023-02-03T19:00:24;100428.91;;;7.58;96.21
27984;BME280;15317;50.360;8.726;2023-02-03T19:04:26;100425.81;;;7.51;97.03
27984;BME280;15317;50.360;8.726;2023-02-03T19:08:28;100433.53;;;7.44;99.41
27984;BME280;15317;50.360;8.726;2023-02-03T19:12:30;100411.31;;;7.41;99.79
27984;BME280;15317;50.360;8.726;2023-02-03T19:16:34;100405.16;;;7.39;100.00
27984;BME280;15317;50.360;8.726;2023-02-03T19:20:36;100402.91;;;7.33;100.00
27984;BME280;15317;50.360;8.726;2023-02-03T19:24:37;100422.81;;;7.32;100.00
27984;BME280;15317;50.360;8.726;2023-02-03T19:28:40;100418.50;;;7.29;100.00
27984;BME280;15317;50.360;8.726;2023-02-03T19:32:43;100438.88;;;7.22;100.00
27984;BME280;15317;50.360;8.726;2023-02-03T19:36:45;100434.53;;;7.20;100.00
27984;BME280;15317;50.360;8.726;2023-02-03T19:40:47;100451.16;;;7.26;100.00
27984;BME280;15317;50.360;8.726;2023-02-03T19:44:50;100454.03;;;7.12;100.00
27984;BME280;15317;50.360;8.726;2023-02-03T19:48:53;100471.47;;;7.08;100.00
27984;BME280;15317;50.360;8.726;2023-02-03T19:52:55;100481.16;;;7.10;100.00
27984;BME280;15317;50.360;8.726;2023-02-03T19:56:57;100495.34;;;7.01;100.00
27984;BME280;15317;50.360;8.726;2023-02-03T20:00:59;100505.19;;;7.02;100.00
27984;BME280;15317;50.360;8.726;2023-02-03T20:05:02;100509.94;;;6.99;100.00
27984;BME280;15317;50.360;8.726;2023-02-03T20:09:04;100486.28;;;6.90;100.00
27984;BME280;15317;50.360;8.726;2023-02-03T20:13:07;100487.06;;;6.92;100.00
27984;BME280;15317;50.360;8.726;2023-02-03T20:17:09;100488.28;;;6.88;100.00
27984;BME280;15317;50.360;8.726;2023-02-03T20:21:13;100489.25;;;6.87;100.00
27984;BME280;15317;50.360;8.726;2023-02-03T20:25:15;100495.09;;;6.81;100.00
27984;BME280;15317;50.360;8.726;2023-02-03T20:29:18;100501.34;;;6.81;100.00
27984;BME280;15317;50.360;8.726;2023-02-03T20:33:20;100509.31;;;6.83;100.00
27984;BME280;15317;50.360;8.726;2023-02-03T20:37:23;100503.91;;;6.83;100.00
27984;BME280;15317;50.360;8.726;2023-02-03T20:41:25;100504.94;;;6.82;100.00
27984;BME280;15317;50.360;8.726;2023-02-03T20:45:28;100518.28;;;6.96;100.00
27984;BME280;15317;50.360;8.726;2023-02-03T20:49:30;100525.72;;;6.92;100.00
27984;BME280;15317;50.360;8.726;2023-02-03T20:53:34;100508.16;;;6.87;100.00
27984;BME280;15317;50.360;8.726;2023-02-03T20:57:36;100513.66;;;6.85;98.87
27984;BME280;15317;50.360;8.726;2023-02-03T21:01:38;100515.03;;;6.91;97.95
27984;BME280;15317;50.360;8.726;2023-02-03T21:05:42;100507.91;;;6.90;97.54
27984;BME280;15317;50.360;8.726;2023-02-03T21:09:46;100517.44;;;6.83;97.76
27984;BME280;15317;50.360;8.726;2023-02-03T21:13:48;100517.78;;;6.78;97.89
27984;BME280;15317;50.360;8.726;2023-02-03T21:17:50;100533.34;;;6.74;97.93
27984;BME280;15317;50.360;8.726;2023-02-03T21:21:52;100542.41;;;6.73;98.29
27984;BME280;15317;50.360;8.726;2023-02-03T21:25:55;100551.25;;;6.75;98.84
27984;BME280;15317;50.360;8.726;2023-02-03T21:29:59;100558.81;;;6.70;99.05